createdAt,value
2022-09-12T00:01:25.611Z,101287.97
2022-09-12T00:03:55.312Z,101291.41
2022-09-12T00:06:26.582Z,101295.53
2022-09-12T00:08:56.759Z,101287.59
2022-09-12T00:11:25.053Z,101276.97
2022-09-12T00:13:57.560Z,101283.66
2022-09-12T00:16:27.907Z,101282.13
2022-09-12T00:18:56.216Z,101268.75
2022-09-12T00:21:25.666Z,101254.41
2022-09-12T00:23:54.133Z,101257.94
2022-09-12T00:26:23.155Z,101247.38
2022-09-12T00:28:52.182Z,101240.66
2022-09-12T00:31:24.033Z,101244.78
2022-09-12T00:33:53.075Z,101247.28
2022-09-12T00:36:23.062Z,101247.28
2022-09-12T00:38:51.782Z,101244.78
2022-09-12T00:41:23.516Z,101242.94
2022-09-12T00:43:53.407Z,101241.81
2022-09-12T00:46:35.844Z,101227.81
2022-09-12T00:49:08.488Z,101217.72
2022-09-12T00:51:38.200Z,101230.44
2022-09-12T00:54:09.563Z,101224.94
2022-09-12T00:56:42.134Z,101226.28
2022-09-12T00:59:14.719Z,101223.28
2022-09-12T01:01:47.536Z,101210.88
2022-09-12T01:04:18.386Z,101211.91
2022-09-12T01:06:48.630Z,101214.53
2022-09-12T01:09:19.263Z,101214.94
2022-09-12T01:11:49.686Z,101210.56
2022-09-12T01:14:19.319Z,101210.75
2022-09-12T01:16:50.884Z,101208.25
2022-09-12T01:19:44.088Z,101206.13
2022-09-12T01:22:28.716Z,101201.84
2022-09-12T01:25:07.112Z,101212.28
2022-09-12T01:27:47.866Z,101214.25
2022-09-12T01:30:26.191Z,101216.22
2022-09-12T01:33:18.383Z,101213.25
2022-09-12T01:35:56.645Z,101211.75
2022-09-12T01:38:29.090Z,101215.56
2022-09-12T01:41:02.650Z,101214.00
2022-09-12T01:43:37.798Z,101219.66
2022-09-12T01:46:14.277Z,101216.41
2022-09-12T01:48:48.683Z,101226.34
2022-09-12T01:51:23.905Z,101222.22
2022-09-12T01:53:55.648Z,101226.34
2022-09-12T01:56:26.818Z,101218.22
2022-09-12T01:59:00.151Z,101215.44
2022-09-12T02:01:33.116Z,101209.72
2022-09-12T02:04:09.713Z,101222.34
2022-09-12T02:06:44.640Z,101219.13
2022-09-12T02:09:18.326Z,101206.75
2022-09-12T02:11:48.597Z,101209.34
2022-09-12T02:14:22.520Z,101209.25
2022-09-12T02:16:56.798Z,101206.28
2022-09-12T02:19:28.806Z,101214.34
2022-09-12T02:22:00.024Z,101206.47
2022-09-12T02:24:32.619Z,101205.53
2022-09-12T02:27:05.872Z,101197.19
2022-09-12T02:29:34.108Z,101187.78
2022-09-12T02:32:06.793Z,101201.81
2022-09-12T02:34:48.235Z,101202.50
2022-09-12T02:37:26.186Z,101195.16
2022-09-12T02:39:55.590Z,101203.50
2022-09-12T02:42:25.305Z,101209.59
2022-09-12T02:44:56.525Z,101205.69
2022-09-12T02:47:29.886Z,101210.63
2022-09-12T02:49:59.268Z,101207.88
2022-09-12T02:52:28.902Z,101209.84
2022-09-12T02:54:59.134Z,101209.09
2022-09-12T02:57:27.393Z,101215.69
2022-09-12T03:00:00.419Z,101209.34
2022-09-12T03:02:38.507Z,101204.75
2022-09-12T03:05:27.776Z,101203.19
2022-09-12T03:08:08.983Z,101201.75
2022-09-12T03:10:48.891Z,101205.38
2022-09-12T03:13:24.593Z,101204.47
2022-09-12T03:16:05.085Z,101199.41
2022-09-12T03:18:47.231Z,101199.03
2022-09-12T03:21:24.520Z,101211.22
2022-09-12T03:24:05.586Z,101216.84
2022-09-12T03:26:38.842Z,101208.97
2022-09-12T03:29:09.181Z,101218.09
2022-09-12T03:31:39.376Z,101211.19
2022-09-12T03:34:13.087Z,101211.47
2022-09-12T03:36:41.966Z,101207.38
2022-09-12T03:39:10.226Z,101202.53
2022-09-12T03:41:38.404Z,101201.69
2022-09-12T03:44:06.603Z,101200.97
2022-09-12T03:46:34.936Z,101201.00
2022-09-12T03:49:03.123Z,101200.63
2022-09-12T03:51:32.695Z,101208.22
2022-09-12T03:54:00.809Z,101207.19
2022-09-12T03:56:29.303Z,101207.31
2022-09-12T03:58:57.536Z,101203.41
2022-09-12T04:01:25.901Z,101212.25
2022-09-12T04:03:54.095Z,101212.41
2022-09-12T04:06:24.013Z,101210.63
2022-09-12T04:08:55.246Z,101217.78
2022-09-12T04:11:24.319Z,101215.59
2022-09-12T04:13:52.887Z,101225.72
2022-09-12T04:16:21.454Z,101229.00
2022-09-12T04:18:49.646Z,101227.47
2022-09-12T04:21:21.786Z,101227.13
2022-09-12T04:23:50.424Z,101228.78
2022-09-12T04:26:21.410Z,101225.94
2022-09-12T04:28:53.703Z,101230.63
2022-09-12T04:31:23.544Z,101231.66
2022-09-12T04:33:55.159Z,101231.19
2022-09-12T04:36:23.422Z,101225.25
2022-09-12T04:38:52.097Z,101216.63
2022-09-12T04:41:23.530Z,101226.41
2022-09-12T04:43:54.365Z,101222.59
2022-09-12T04:46:22.620Z,101223.94
2022-09-12T04:48:55.934Z,101222.78
2022-09-12T04:51:28.089Z,101215.84
2022-09-12T04:53:58.332Z,101229.47
2022-09-12T04:56:29.580Z,101225.53
2022-09-12T04:58:59.073Z,101235.06
2022-09-12T05:01:30.459Z,101239.72
2022-09-12T05:04:00.263Z,101251.50
2022-09-12T05:06:31.695Z,101239.66
2022-09-12T05:09:00.382Z,101247.31
2022-09-12T05:11:59.610Z,101252.31
2022-09-12T05:14:19.462Z,101257.59
2022-09-12T05:16:49.618Z,101245.38
2022-09-12T05:19:18.295Z,101247.09
2022-09-12T05:21:46.497Z,101246.94
2022-09-12T05:24:14.746Z,101257.25
2022-09-12T05:26:44.247Z,101266.44
2022-09-12T05:29:13.214Z,101256.81
2022-09-12T05:31:41.515Z,101255.03
2022-09-12T05:34:10.217Z,101248.66
2022-09-12T05:36:38.593Z,101251.66
2022-09-12T05:39:06.820Z,101253.38
2022-09-12T05:41:36.021Z,101257.41
2022-09-12T05:44:08.029Z,101258.91
2022-09-12T05:46:38.564Z,101262.34
2022-09-12T05:49:09.821Z,101259.06
2022-09-12T05:51:40.549Z,101260.25
2022-09-12T05:54:11.087Z,101256.44
2022-09-12T05:56:41.005Z,101259.50
2022-09-12T05:59:14.190Z,101258.66
2022-09-12T06:01:43.247Z,101257.19
2022-09-12T06:04:12.105Z,101259.22
2022-09-12T06:06:43.397Z,101250.50
2022-09-12T06:09:12.890Z,101257.91
2022-09-12T06:11:41.924Z,101250.78
2022-09-12T06:14:12.917Z,101251.38
2022-09-12T06:16:41.327Z,101247.53
2022-09-12T06:19:15.398Z,101251.06
2022-09-12T06:21:43.778Z,101246.50
2022-09-12T06:24:12.173Z,101252.78
2022-09-12T06:26:40.424Z,101259.66
2022-09-12T06:29:08.655Z,101265.63
2022-09-12T06:31:39.695Z,101260.94
2022-09-12T06:34:10.111Z,101281.28
2022-09-12T06:36:40.179Z,101291.41
2022-09-12T06:39:11.892Z,101291.03
2022-09-12T06:41:43.691Z,101300.19
2022-09-12T06:44:14.177Z,101314.44
2022-09-12T06:46:44.238Z,101319.91
2022-09-12T06:49:13.160Z,101331.00
2022-09-12T06:51:43.093Z,101323.16
2022-09-12T06:54:13.889Z,101306.31
2022-09-12T06:56:42.320Z,101301.66
2022-09-12T06:59:10.676Z,101303.00
2022-09-12T07:01:40.162Z,101299.88
2022-09-12T07:04:10.995Z,101298.50
2022-09-12T07:06:41.391Z,101296.31
2022-09-12T07:09:12.092Z,101290.44
2022-09-12T07:11:42.084Z,101297.66
2022-09-12T07:14:14.034Z,101293.09
2022-09-12T07:16:42.757Z,101296.88
2022-09-12T07:19:12.735Z,101300.25
2022-09-12T07:21:41.629Z,101293.59
2022-09-12T07:24:11.234Z,101291.56
2022-09-12T07:26:42.144Z,101284.09
2022-09-12T07:29:36.024Z,101285.44
2022-09-12T07:32:05.871Z,101274.84
2022-09-12T07:34:36.141Z,101276.25
2022-09-12T07:37:04.571Z,101269.09
2022-09-12T07:39:32.783Z,101262.78
2022-09-12T07:42:01.420Z,101251.56
2022-09-12T07:44:30.080Z,101246.03
2022-09-12T07:46:58.223Z,101245.41
2022-09-12T07:49:26.371Z,101248.94
2022-09-12T07:51:55.854Z,101244.97
2022-09-12T07:54:24.315Z,101226.16
2022-09-12T07:56:52.458Z,101224.50
2022-09-12T07:59:41.529Z,101211.13
2022-09-12T08:02:17.081Z,101214.50
2022-09-12T08:04:47.872Z,101207.88
2022-09-12T08:07:19.126Z,101201.97
2022-09-12T08:09:47.553Z,101200.88
2022-09-12T08:12:16.539Z,101197.91
2022-09-12T08:14:44.851Z,101198.63
2022-09-12T08:17:14.308Z,101196.97
2022-09-12T08:19:42.599Z,101196.63
2022-09-12T08:22:11.212Z,101193.56
2022-09-12T08:24:40.980Z,101195.13
2022-09-12T08:27:09.374Z,101203.59
2022-09-12T08:29:37.530Z,101193.22
2022-09-12T08:32:05.850Z,101199.22
2022-09-12T08:34:33.983Z,101196.09
2022-09-12T08:37:02.162Z,101195.41
2022-09-12T08:39:30.295Z,101187.53
2022-09-12T08:42:03.094Z,101185.19
2022-09-12T08:44:55.663Z,101192.91
2022-09-12T08:47:28.404Z,101191.78
2022-09-12T08:50:11.431Z,101195.84
2022-09-12T08:52:45.010Z,101186.94
2022-09-12T08:55:26.557Z,101187.50
2022-09-12T08:57:56.043Z,101195.44
2022-09-12T09:00:24.258Z,101199.34
2022-09-12T09:03:09.389Z,101205.16
2022-09-12T09:05:49.250Z,101203.53
2022-09-12T09:08:31.772Z,101206.97
2022-09-12T09:11:11.105Z,101210.03
2022-09-12T09:14:08.092Z,101201.31
2022-09-12T09:16:39.169Z,101204.38
2022-09-12T09:19:12.966Z,101196.88
2022-09-12T09:21:45.538Z,101206.25
2022-09-12T09:24:17.796Z,101204.03
2022-09-12T09:26:52.481Z,101200.84
2022-09-12T09:29:26.098Z,101202.94
2022-09-12T09:31:57.711Z,101197.72
2022-09-12T09:34:29.971Z,101201.59
2022-09-12T09:37:08.325Z,101205.16
2022-09-12T09:39:48.163Z,101210.03
2022-09-12T09:42:28.226Z,101204.72
2022-09-12T09:45:01.049Z,101194.28
2022-09-12T09:47:29.379Z,101192.56
2022-09-12T09:49:57.514Z,101195.53
2022-09-12T09:52:29.515Z,101190.28
2022-09-12T09:55:00.883Z,101190.91
2022-09-12T09:57:46.639Z,101193.31
2022-09-12T10:00:25.829Z,101186.50
2022-09-12T10:03:25.542Z,101191.38
2022-09-12T10:05:55.515Z,101188.06
2022-09-12T10:08:26.337Z,101185.38
2022-09-12T10:11:01.335Z,101181.78
2022-09-12T10:13:35.310Z,101171.91
2022-09-12T10:16:07.606Z,101182.78
2022-09-12T10:18:38.283Z,101182.00
2022-09-12T10:21:29.603Z,101187.47
2022-09-12T10:24:14.418Z,101186.50
2022-09-12T10:26:44.797Z,101185.22
2022-09-12T10:29:17.218Z,101185.13
2022-09-12T10:31:51.819Z,101176.19
2022-09-12T10:34:28.019Z,101182.72
2022-09-12T10:37:02.764Z,101181.97
2022-09-12T10:39:32.767Z,101187.94
2022-09-12T10:42:01.386Z,101191.22
2022-09-12T10:44:31.730Z,101195.03
2022-09-12T10:47:20.463Z,101186.81
2022-09-12T10:49:50.950Z,101185.25
2022-09-12T10:52:24.163Z,101184.81
2022-09-12T10:54:52.868Z,101192.22
2022-09-12T10:57:51.177Z,101180.25
2022-09-12T11:00:27.604Z,101186.28
2022-09-12T11:03:07.554Z,101185.78
2022-09-12T11:05:52.592Z,101182.34
2022-09-12T11:08:37.448Z,101192.03
2022-09-12T11:11:13.720Z,101198.03
2022-09-12T11:14:00.670Z,101200.63
2022-09-12T11:16:41.059Z,101201.06
2022-09-12T11:19:33.490Z,101200.94
2022-09-12T11:22:17.972Z,101194.06
2022-09-12T11:25:09.910Z,101199.47
2022-09-12T11:28:00.200Z,101203.59
2022-09-12T11:30:39.053Z,101202.66
2022-09-12T11:33:30.061Z,101206.53
2022-09-12T11:36:05.982Z,101197.53
2022-09-12T11:38:51.808Z,101194.06
2022-09-12T11:41:26.083Z,101198.78
2022-09-12T11:44:01.215Z,101187.91
2022-09-12T11:46:36.228Z,101197.28
2022-09-12T11:49:15.644Z,101199.31
2022-09-12T11:51:50.662Z,101207.78
2022-09-12T11:54:25.519Z,101203.06
2022-09-12T11:57:02.226Z,101196.44
2022-09-12T11:59:36.369Z,101198.38
2022-09-12T12:02:11.801Z,101194.13
2022-09-12T12:04:45.914Z,101198.44
2022-09-12T12:07:15.374Z,101193.81
2022-09-12T12:09:51.354Z,101193.66
2022-09-12T12:12:24.266Z,101187.84
2022-09-12T12:14:56.388Z,101186.69
2022-09-12T12:17:26.130Z,101182.13
2022-09-12T12:20:04.767Z,101181.13
2022-09-12T12:22:36.376Z,101195.72
2022-09-12T12:25:29.406Z,101190.78
2022-09-12T12:28:01.715Z,101189.22
2022-09-12T12:31:02.060Z,101174.03
2022-09-12T12:33:56.551Z,101178.25
2022-09-12T12:36:35.710Z,101166.31
2022-09-12T12:39:47.922Z,101169.53
2022-09-12T12:42:53.052Z,101169.72
2022-09-12T12:46:04.214Z,101142.88
2022-09-12T12:49:16.755Z,101140.03
2022-09-12T12:52:01.230Z,101141.00
2022-09-12T12:54:49.138Z,101153.06
2022-09-12T12:57:21.306Z,101148.91
2022-09-12T12:59:53.879Z,101154.06
2022-09-12T13:02:28.340Z,101151.44
2022-09-12T13:04:57.639Z,101152.53
2022-09-12T13:07:32.198Z,101147.41
2022-09-12T13:10:02.492Z,101136.78
2022-09-12T13:12:34.838Z,101121.59
2022-09-12T13:15:04.008Z,101132.25
2022-09-12T13:17:38.960Z,101140.41
2022-09-12T13:20:28.393Z,101127.00
2022-09-12T13:22:59.110Z,101132.41
2022-09-12T13:25:32.615Z,101132.72
2022-09-12T13:28:07.459Z,101130.81
2022-09-12T13:30:37.746Z,101125.09
2022-09-12T13:33:17.471Z,101122.41
2022-09-12T13:36:09.803Z,101126.03
2022-09-12T13:38:52.339Z,101125.13
2022-09-12T13:41:33.971Z,101121.81
2022-09-12T13:44:03.944Z,101129.22
2022-09-12T13:46:35.171Z,101113.06
2022-09-12T13:49:17.471Z,101119.44
2022-09-12T13:51:45.715Z,101113.81
2022-09-12T13:54:24.322Z,101113.94
2022-09-12T13:56:52.899Z,101115.94
2022-09-12T13:59:21.220Z,101121.44
2022-09-12T14:01:49.819Z,101118.19
2022-09-12T14:04:38.358Z,101110.34
2022-09-12T14:07:14.642Z,101113.16
2022-09-12T14:09:47.102Z,101113.31
2022-09-12T14:12:23.087Z,101113.56
2022-09-12T14:14:52.541Z,101115.25
2022-09-12T14:17:29.441Z,101108.94
2022-09-12T14:19:59.440Z,101103.63
2022-09-12T14:22:29.873Z,101106.16
2022-09-12T14:25:00.136Z,101109.72
2022-09-12T14:27:31.633Z,101107.16
2022-09-12T14:30:03.545Z,101097.91
2022-09-12T14:32:31.816Z,101092.25
2022-09-12T14:35:17.896Z,101100.06
2022-09-12T14:37:49.171Z,101101.94
2022-09-12T14:40:20.770Z,101101.53
2022-09-12T14:42:50.738Z,101097.94
2022-09-12T14:45:25.769Z,101100.84
2022-09-12T14:47:54.715Z,101093.75
2022-09-12T14:50:26.248Z,101095.06
2022-09-12T14:53:04.637Z,101093.91
2022-09-12T14:55:35.931Z,101099.00
2022-09-12T14:58:23.388Z,101087.75
2022-09-12T15:00:57.737Z,101083.78
2022-09-12T15:03:29.494Z,101088.72
2022-09-12T15:05:58.383Z,101068.34
2022-09-12T15:08:26.843Z,101085.50
2022-09-12T15:10:56.424Z,101075.41
2022-09-12T15:13:26.510Z,101073.97
2022-09-12T15:15:56.163Z,101060.44
2022-09-12T15:18:25.977Z,101065.31
2022-09-12T15:20:57.262Z,101070.41
2022-09-12T15:23:33.289Z,101061.13
2022-09-12T15:26:03.739Z,101068.13
2022-09-12T15:28:32.840Z,101049.66
2022-09-12T15:31:06.818Z,101047.56
2022-09-12T15:33:35.102Z,101058.59
2022-09-12T15:36:03.804Z,101036.41
2022-09-12T15:38:31.942Z,101035.28
2022-09-12T15:41:00.206Z,101044.50
2022-09-12T15:43:29.670Z,101030.28
2022-09-12T15:45:59.312Z,101025.44
2022-09-12T15:48:27.495Z,101028.31
2022-09-12T15:50:57.682Z,101019.00
2022-09-12T15:53:25.834Z,101018.03
2022-09-12T15:55:54.088Z,101023.84
2022-09-12T15:58:22.308Z,101014.22
2022-09-12T16:00:51.810Z,101019.16
2022-09-12T16:03:24.206Z,101010.34
2022-09-12T16:05:57.112Z,101014.47
2022-09-12T16:08:25.688Z,101005.41
2022-09-12T16:10:56.806Z,101017.44
2022-09-12T16:13:25.106Z,101004.41
2022-09-12T16:15:57.633Z,101005.25
2022-09-12T16:18:26.603Z,101004.81
2022-09-12T16:20:54.840Z,101001.25
2022-09-12T16:23:23.830Z,100994.84
2022-09-12T16:25:58.870Z,100998.31
2022-09-12T16:28:27.403Z,100985.44
2022-09-12T16:30:57.710Z,100991.50
2022-09-12T16:33:26.690Z,100987.47
2022-09-12T16:36:03.280Z,100984.47
2022-09-12T16:38:31.789Z,100986.97
2022-09-12T16:41:04.138Z,100981.03
2022-09-12T16:43:33.778Z,100980.19
2022-09-12T16:46:05.183Z,100981.16
2022-09-12T16:48:33.893Z,100979.56
2022-09-12T16:51:03.958Z,100977.31
2022-09-12T16:53:33.095Z,100976.03
2022-09-12T16:56:01.731Z,100978.28
2022-09-12T16:58:33.378Z,100978.78
2022-09-12T17:01:03.948Z,100971.38
2022-09-12T17:03:32.261Z,100974.13
2022-09-12T17:06:01.491Z,100967.69
2022-09-12T17:08:30.247Z,100963.84
2022-09-12T17:11:01.587Z,100969.19
2022-09-12T17:13:53.043Z,100966.03
2022-09-12T17:16:20.947Z,100958.56
2022-09-12T17:18:49.819Z,100960.78
2022-09-12T17:21:18.180Z,100961.16
2022-09-12T17:23:46.749Z,100954.50
2022-09-12T17:26:15.587Z,100958.31
2022-09-12T17:28:44.142Z,100962.78
2022-09-12T17:31:14.874Z,100960.28
2022-09-12T17:33:44.713Z,100961.97
2022-09-12T17:36:15.343Z,100960.84
2022-09-12T17:38:45.297Z,100967.78
2022-09-12T17:41:15.991Z,100969.63
2022-09-12T17:43:46.032Z,100967.94
2022-09-12T17:46:14.817Z,100970.59
2022-09-12T17:48:44.766Z,100964.28
2022-09-12T17:51:15.603Z,100970.09
2022-09-12T17:53:44.045Z,100968.16
2022-09-12T17:56:12.904Z,100969.38
2022-09-12T17:58:41.362Z,100963.31
2022-09-12T18:01:32.354Z,100965.00
2022-09-12T18:04:02.242Z,100968.38
2022-09-12T18:06:32.448Z,100969.84
2022-09-12T18:09:01.198Z,100975.31
2022-09-12T18:11:29.797Z,100976.50
2022-09-12T18:13:59.706Z,100977.38
2022-09-12T18:16:28.675Z,100975.75
2022-09-12T18:18:56.780Z,100982.81
2022-09-12T18:21:26.290Z,100985.91
2022-09-12T18:23:54.436Z,100981.81
2022-09-12T18:26:22.766Z,100982.69
2022-09-12T18:28:50.896Z,100990.19
2022-09-12T18:31:21.293Z,100987.94
2022-09-12T18:33:49.838Z,100994.34
2022-09-12T18:36:19.379Z,100990.66
2022-09-12T18:38:49.683Z,100997.19
2022-09-12T18:41:19.817Z,101000.59
2022-09-12T18:43:48.778Z,101004.81
2022-09-12T18:46:19.050Z,101004.59
2022-09-12T18:48:47.736Z,100999.06
2022-09-12T18:51:18.198Z,100996.84
2022-09-12T18:53:52.042Z,100991.69
2022-09-12T18:56:21.172Z,101002.69
2022-09-12T18:58:52.267Z,101003.97
2022-09-12T19:01:22.788Z,100996.25
2022-09-12T19:03:51.071Z,100985.50
2022-09-12T19:06:20.996Z,100981.16
2022-09-12T19:08:52.708Z,100988.03
2022-09-12T19:11:21.870Z,100993.34
2022-09-12T19:13:53.114Z,100995.78
2022-09-12T19:16:23.787Z,100980.34
2022-09-12T19:18:52.951Z,100990.19
2022-09-12T19:21:23.229Z,100985.94
2022-09-12T19:23:53.991Z,100981.84
2022-09-12T19:26:22.720Z,100979.53
2022-09-12T19:28:51.080Z,100977.00
2022-09-12T19:31:20.345Z,100985.50
2022-09-12T19:33:49.274Z,100978.69
2022-09-12T19:39:10.151Z,100974.22
2022-09-12T19:41:38.378Z,100976.56
2022-09-12T19:44:06.586Z,100976.19
2022-09-12T19:46:35.026Z,100979.09
2022-09-12T19:49:03.376Z,100978.72
2022-09-12T19:51:31.640Z,100969.75
2022-09-12T19:53:59.824Z,100980.31
2022-09-12T19:56:29.376Z,100963.44
2022-09-12T19:58:57.649Z,100958.63
2022-09-12T20:01:28.310Z,100964.50
2022-09-12T20:03:57.423Z,100960.31
2022-09-12T20:06:26.599Z,100958.63
2022-09-12T20:08:55.228Z,100954.13
2022-09-12T20:11:25.745Z,100956.91
2022-09-12T20:13:55.319Z,100949.84
2022-09-12T20:16:25.617Z,100943.91
2022-09-12T20:18:55.865Z,100938.75
2022-09-12T20:21:31.090Z,100938.88
2022-09-12T20:24:04.932Z,100947.28
2022-09-12T20:26:33.474Z,100943.94
2022-09-12T20:29:03.684Z,100947.06
2022-09-12T20:31:32.342Z,100938.75
2022-09-12T20:34:00.783Z,100930.28
2022-09-12T20:36:29.085Z,100934.66
2022-09-12T20:39:00.013Z,100938.19
2022-09-12T20:41:30.423Z,100933.09
2022-09-12T20:43:59.282Z,100933.78
2022-09-12T20:46:29.819Z,100928.84
2022-09-12T20:48:58.725Z,100928.31
2022-09-12T20:51:29.519Z,100928.16
2022-09-12T20:53:58.745Z,100931.19
2022-09-12T20:56:28.404Z,100921.09
2022-09-12T20:58:56.927Z,100915.38
2022-09-12T21:01:26.680Z,100917.69
2022-09-12T21:03:56.195Z,100916.19
2022-09-12T21:06:24.470Z,100919.22
2022-09-12T21:08:53.546Z,100929.69
2022-09-12T21:11:21.850Z,100922.53
2022-09-12T21:13:50.291Z,100917.81
2022-09-12T21:16:20.158Z,100923.97
2022-09-12T21:18:48.872Z,100942.78
2022-09-12T21:21:18.558Z,100935.47
2022-09-12T21:23:47.022Z,100925.78
2022-09-12T21:26:15.183Z,100930.72
2022-09-12T21:28:43.330Z,100920.97
2022-09-12T21:31:11.978Z,100919.84
2022-09-12T21:33:40.466Z,100917.72
2022-09-12T21:36:09.675Z,100927.88
2022-09-12T21:38:39.151Z,100913.16
2022-09-12T21:41:09.176Z,100926.47
2022-09-12T21:43:37.987Z,100920.63
2022-09-12T21:46:06.794Z,100923.34
2022-09-12T21:48:35.630Z,100920.88
2022-09-12T21:51:04.767Z,100922.78
2022-09-12T21:53:33.064Z,100921.94
2022-09-12T21:56:04.070Z,100921.69
2022-09-12T21:58:32.367Z,100923.63
2022-09-12T22:01:01.005Z,100913.13
2022-09-12T22:03:30.160Z,100920.25
2022-09-12T22:05:59.007Z,100913.16
2022-09-12T22:08:27.696Z,100913.63
2022-09-12T22:10:59.955Z,100913.06
2022-09-12T22:13:32.337Z,100907.28
2022-09-12T22:16:03.171Z,100897.59
2022-09-12T22:18:34.365Z,100895.59
2022-09-12T22:21:05.238Z,100900.06
2022-09-12T22:23:51.071Z,100899.78
2022-09-12T22:26:19.251Z,100883.25
2022-09-12T22:28:49.803Z,100890.84
2022-09-12T22:31:18.929Z,100891.78
2022-09-12T22:33:48.065Z,100893.75
2022-09-12T22:36:16.286Z,100883.25
2022-09-12T22:38:44.991Z,100880.41
2022-09-12T22:41:14.098Z,100869.09
2022-09-12T22:43:42.378Z,100864.09
2022-09-12T22:46:13.328Z,100862.88
2022-09-12T22:48:41.901Z,100854.78
2022-09-12T22:51:12.286Z,100857.44
2022-09-12T22:53:40.759Z,100849.31
2022-09-12T22:56:10.220Z,100845.31
2022-09-12T22:58:38.815Z,100850.44
2022-09-12T23:01:07.458Z,100849.97
2022-09-12T23:03:37.799Z,100844.09
2022-09-12T23:06:07.106Z,100857.16
2022-09-12T23:08:36.850Z,100851.94
2022-09-12T23:11:06.814Z,100855.25
2022-09-12T23:13:34.961Z,100851.00
2022-09-12T23:16:05.483Z,100837.81
2022-09-12T23:18:35.948Z,100822.16
2022-09-12T23:21:09.453Z,100825.03
2022-09-12T23:23:37.807Z,100820.47
2022-09-12T23:26:08.305Z,100810.03
2022-09-12T23:28:37.106Z,100812.59
2022-09-12T23:31:05.656Z,100814.41
2022-09-12T23:33:34.291Z,100815.25
2022-09-12T23:36:08.564Z,100820.09
2022-09-12T23:38:36.843Z,100816.66
2022-09-12T23:41:05.741Z,100815.53
2022-09-12T23:43:34.762Z,100804.81
2022-09-12T23:46:04.611Z,100798.84
2022-09-12T23:48:33.394Z,100801.78
2022-09-12T23:51:01.724Z,100795.44
2022-09-12T23:53:31.525Z,100802.16
2022-09-12T23:56:00.305Z,100797.78
2022-09-12T23:58:30.171Z,100802.63
